createdAt,value
2019-03-23T00:00:11.976Z,9.88
2019-03-23T00:02:47.151Z,9.86
2019-03-23T00:05:15.038Z,9.89
2019-03-23T00:07:41.659Z,9.88
2019-03-23T00:10:09.248Z,10.00
2019-03-23T00:12:35.974Z,10.04
2019-03-23T00:15:02.705Z,10.05
2019-03-23T00:17:29.679Z,9.98
2019-03-23T00:22:41.792Z,9.84
2019-03-23T00:25:11.054Z,9.62
2019-03-23T00:27:37.893Z,9.69
2019-03-23T00:30:04.852Z,9.90
2019-03-23T00:32:36.520Z,9.96
2019-03-23T00:35:02.753Z,9.91
2019-03-23T00:37:29.664Z,9.92
2019-03-23T00:39:56.594Z,9.86
2019-03-23T00:42:23.178Z,9.79
2019-03-23T00:44:50.274Z,9.74
2019-03-23T00:47:17.218Z,9.74
2019-03-23T00:49:45.368Z,9.75
2019-03-23T00:52:12.673Z,9.68
2019-03-23T00:54:39.332Z,9.77
2019-03-23T00:57:06.034Z,9.73
2019-03-23T00:59:32.842Z,9.72
2019-03-23T01:01:59.427Z,9.66
2019-03-23T01:04:26.293Z,9.66
2019-03-23T01:06:53.044Z,9.65
2019-03-23T01:09:20.005Z,9.62
2019-03-23T01:11:46.614Z,9.55
2019-03-23T01:14:14.456Z,9.40
2019-03-23T01:16:41.329Z,9.52
2019-03-23T01:19:08.193Z,9.54
2019-03-23T01:21:35.134Z,9.56
2019-03-23T01:24:01.805Z,9.47
2019-03-23T01:26:28.709Z,9.63
2019-03-23T01:28:56.147Z,9.54
2019-03-23T01:31:22.787Z,9.39
2019-03-23T01:33:49.489Z,9.24
2019-03-23T01:36:16.695Z,9.10
2019-03-23T01:38:43.692Z,9.10
2019-03-23T01:41:10.359Z,9.12
2019-03-23T01:43:37.117Z,9.15
2019-03-23T01:46:03.992Z,9.04
2019-03-23T01:48:30.664Z,8.94
2019-03-23T01:50:57.602Z,8.91
2019-03-23T01:53:24.207Z,8.98
2019-03-23T01:55:59.164Z,9.13
2019-03-23T01:58:26.656Z,9.21
2019-03-23T02:00:53.440Z,9.22
2019-03-23T02:03:20.189Z,9.36
2019-03-23T02:05:47.746Z,9.21
2019-03-23T02:08:14.369Z,9.11
2019-03-23T02:10:42.053Z,9.19
2019-03-23T02:13:09.271Z,9.30
2019-03-23T02:15:39.011Z,9.37
2019-03-23T02:20:35.147Z,9.27
2019-03-23T02:23:02.004Z,9.12
2019-03-23T02:25:29.598Z,9.25
2019-03-23T02:27:56.384Z,9.21
2019-03-23T02:30:24.256Z,9.10
2019-03-23T02:32:52.068Z,9.10
2019-03-23T02:35:19.621Z,9.15
2019-03-23T02:37:46.596Z,9.04
2019-03-23T02:40:13.300Z,9.02
2019-03-23T02:42:40.589Z,8.86
2019-03-23T02:45:07.309Z,8.70
2019-03-23T02:47:34.885Z,8.76
2019-03-23T02:50:02.707Z,8.70
2019-03-23T02:52:29.630Z,8.73
2019-03-23T02:54:57.819Z,8.69
2019-03-23T02:57:29.106Z,8.71
2019-03-23T02:59:57.001Z,8.85
2019-03-23T03:02:23.736Z,8.83
2019-03-23T03:04:51.680Z,8.68
2019-03-23T03:07:18.327Z,8.67
2019-03-23T03:09:44.921Z,8.79
2019-03-23T03:15:03.363Z,8.69
2019-03-23T03:17:30.548Z,8.57
2019-03-23T03:19:58.208Z,8.89
2019-03-23T03:22:24.941Z,8.74
2019-03-23T03:24:51.662Z,8.55
2019-03-23T03:27:18.378Z,8.27
2019-03-23T03:29:45.313Z,8.16
2019-03-23T03:32:13.339Z,8.16
2019-03-23T03:34:40.085Z,8.26
2019-03-23T03:37:06.980Z,8.28
2019-03-23T03:39:33.652Z,8.42
2019-03-23T03:42:00.536Z,8.59
2019-03-23T03:44:28.121Z,8.53
2019-03-23T03:46:55.114Z,8.37
2019-03-23T03:49:21.713Z,8.37
2019-03-23T03:51:48.535Z,8.39
2019-03-23T03:54:15.562Z,8.37
2019-03-23T03:56:43.187Z,8.42
2019-03-23T03:59:09.850Z,8.46
2019-03-23T04:01:37.250Z,8.50
2019-03-23T04:04:04.047Z,8.61
2019-03-23T04:06:31.914Z,8.55
2019-03-23T04:08:58.589Z,8.54
2019-03-23T04:11:26.578Z,8.58
2019-03-23T04:13:53.492Z,8.34
2019-03-23T04:16:20.828Z,8.32
2019-03-23T04:18:47.470Z,8.41
2019-03-23T04:21:17.074Z,8.31
2019-03-23T04:23:43.668Z,8.14
2019-03-23T04:26:16.744Z,8.18
2019-03-23T04:28:47.770Z,8.17
2019-03-23T04:31:17.386Z,8.11
2019-03-23T04:33:48.426Z,8.12
2019-03-23T04:36:16.927Z,8.15
2019-03-23T04:38:54.763Z,8.00
2019-03-23T04:41:23.952Z,8.07
2019-03-23T04:43:51.827Z,8.14
2019-03-23T04:46:21.416Z,7.97
2019-03-23T04:48:54.571Z,7.92
2019-03-23T04:51:24.966Z,8.04
2019-03-23T04:53:55.421Z,8.26
2019-03-23T04:56:24.535Z,8.32
2019-03-23T04:58:52.194Z,8.25
2019-03-23T05:04:04.878Z,8.08
2019-03-23T05:06:32.658Z,8.04
2019-03-23T05:09:03.922Z,8.10
2019-03-23T05:14:20.201Z,7.68
2019-03-23T05:17:05.778Z,7.76
2019-03-23T05:19:35.330Z,7.93
2019-03-23T05:22:06.469Z,7.88
2019-03-23T05:24:38.476Z,7.85
2019-03-23T05:27:06.419Z,7.89
2019-03-23T05:29:50.490Z,8.09
2019-03-23T05:32:17.353Z,8.28
2019-03-23T05:34:45.161Z,8.33
2019-03-23T05:37:12.675Z,8.21
2019-03-23T05:39:45.328Z,8.19
2019-03-23T05:42:23.909Z,8.43
2019-03-23T05:48:02.570Z,8.72
2019-03-23T05:50:30.519Z,8.89
2019-03-23T05:52:58.351Z,8.92
2019-03-23T05:55:29.140Z,9.09
2019-03-23T05:57:56.513Z,9.45
2019-03-23T06:00:24.509Z,9.61
2019-03-23T06:02:53.431Z,9.83
2019-03-23T06:05:25.310Z,9.97
2019-03-23T06:07:55.998Z,9.96
2019-03-23T06:10:24.394Z,10.05
2019-03-23T06:12:55.441Z,10.08
2019-03-23T06:15:23.341Z,10.34
2019-03-23T06:17:53.386Z,10.56
2019-03-23T06:20:20.016Z,10.83
2019-03-23T06:22:46.645Z,11.22
2019-03-23T06:25:13.599Z,11.32
2019-03-23T06:27:40.204Z,11.24
2019-03-23T06:30:06.956Z,11.36
2019-03-23T06:32:33.819Z,11.64
2019-03-23T06:35:01.821Z,11.64
2019-03-23T06:37:28.578Z,11.97
2019-03-23T06:39:55.446Z,12.27
2019-03-23T06:42:22.639Z,12.48
2019-03-23T06:44:49.282Z,12.66
2019-03-23T06:47:17.063Z,12.91
2019-03-23T06:49:43.657Z,13.40
2019-03-23T06:52:10.266Z,13.49
2019-03-23T06:54:36.929Z,13.26
2019-03-23T06:57:03.531Z,13.37
2019-03-23T06:59:30.256Z,13.41
2019-03-23T07:01:56.911Z,13.56
2019-03-23T07:04:23.488Z,13.63
2019-03-23T07:06:50.068Z,13.83
2019-03-23T07:09:16.762Z,14.05
2019-03-23T07:11:43.960Z,14.29
2019-03-23T07:14:10.572Z,14.58
2019-03-23T07:16:37.570Z,14.71
2019-03-23T07:19:04.172Z,15.00
2019-03-23T07:21:30.767Z,15.34
2019-03-23T07:23:58.709Z,15.27
2019-03-23T07:26:25.327Z,15.45
2019-03-23T07:28:52.731Z,15.65
2019-03-23T07:31:19.722Z,15.68
2019-03-23T07:33:46.386Z,15.80
2019-03-23T07:36:13.477Z,15.86
2019-03-23T07:38:40.112Z,16.02
2019-03-23T07:41:06.713Z,16.04
2019-03-23T07:43:33.566Z,16.41
2019-03-23T07:46:01.000Z,16.59
2019-03-23T07:48:28.626Z,16.68
2019-03-23T07:50:55.325Z,16.80
2019-03-23T07:53:22.342Z,16.85
2019-03-23T07:55:49.204Z,16.37
2019-03-23T07:58:15.795Z,16.60
2019-03-23T08:00:43.008Z,16.84
2019-03-23T08:03:09.627Z,17.01
2019-03-23T08:05:36.507Z,17.26
2019-03-23T08:08:03.297Z,17.42
2019-03-23T08:10:29.963Z,17.58
2019-03-23T08:12:56.562Z,17.74
2019-03-23T08:15:23.329Z,17.53
2019-03-23T08:17:50.092Z,17.72
2019-03-23T08:20:17.730Z,17.98
2019-03-23T08:22:44.940Z,18.17
2019-03-23T08:25:13.844Z,18.39
2019-03-23T08:27:42.525Z,18.59
2019-03-23T08:30:13.090Z,18.70
2019-03-23T08:32:40.665Z,19.10
2019-03-23T08:35:11.716Z,19.20
2019-03-23T08:37:50.715Z,19.27
2019-03-23T08:40:22.557Z,19.30
2019-03-23T08:42:54.605Z,19.62
2019-03-23T08:45:22.340Z,19.76
2019-03-23T08:47:49.951Z,20.03
2019-03-23T08:50:23.287Z,20.33
2019-03-23T08:52:53.841Z,20.34
2019-03-23T08:55:25.234Z,20.35
2019-03-23T09:00:51.447Z,20.58
2019-03-23T09:06:07.371Z,20.69
2019-03-23T09:08:34.972Z,20.93
2019-03-23T09:11:01.617Z,21.09
2019-03-23T09:13:40.059Z,21.17
2019-03-23T09:15:58.430Z,21.39
2019-03-23T09:18:25.098Z,21.56
2019-03-23T09:20:52.079Z,21.55
2019-03-23T09:23:18.752Z,21.89
2019-03-23T09:25:45.873Z,22.12
2019-03-23T09:28:12.776Z,22.10
2019-03-23T09:30:39.557Z,22.30
2019-03-23T09:33:06.274Z,22.49
2019-03-23T09:35:32.914Z,22.80
2019-03-23T09:37:59.829Z,22.75
2019-03-23T09:40:26.434Z,22.56
2019-03-23T09:43:17.219Z,22.44
2019-03-23T09:45:26.243Z,22.34
2019-03-23T09:47:53.130Z,22.38
2019-03-23T09:50:22.317Z,22.77
2019-03-23T09:52:52.968Z,22.91
2019-03-23T09:55:37.250Z,22.92
2019-03-23T10:00:53.683Z,22.65
2019-03-23T10:03:23.649Z,22.78
2019-03-23T10:05:51.287Z,22.68
2019-03-23T10:08:19.159Z,22.96
2019-03-23T10:10:46.370Z,22.98
2019-03-23T10:13:13.426Z,23.17
2019-03-23T10:15:45.385Z,23.52
2019-03-23T10:18:13.495Z,23.28
2019-03-23T10:20:40.344Z,23.46
2019-03-23T10:23:07.007Z,23.59
2019-03-23T10:25:33.761Z,23.58
2019-03-23T10:28:00.366Z,23.76
2019-03-23T10:30:27.086Z,23.28
2019-03-23T10:32:54.271Z,23.60
2019-03-23T10:35:21.220Z,24.15
2019-03-23T10:37:48.538Z,24.34
2019-03-23T10:40:15.612Z,24.87
2019-03-23T10:42:43.353Z,24.76
2019-03-23T10:45:10.447Z,24.66
2019-03-23T10:47:37.463Z,24.79
2019-03-23T10:50:04.486Z,24.80
2019-03-23T10:52:31.387Z,24.28
2019-03-23T10:54:58.315Z,24.18
2019-03-23T10:57:25.200Z,24.04
2019-03-23T10:59:52.144Z,24.08
2019-03-23T11:02:18.927Z,24.52
2019-03-23T11:04:45.883Z,25.10
2019-03-23T11:07:12.848Z,25.23
2019-03-23T11:09:39.900Z,25.48
2019-03-23T11:12:06.893Z,25.70
2019-03-23T11:14:33.841Z,25.37
2019-03-23T11:17:00.758Z,25.51
2019-03-23T11:19:27.935Z,25.60
2019-03-23T11:21:54.844Z,26.08
2019-03-23T11:24:22.377Z,26.35
2019-03-23T11:26:49.331Z,25.95
2019-03-23T11:29:16.223Z,25.54
2019-03-23T11:31:43.296Z,25.58
2019-03-23T11:34:17.729Z,25.60
2019-03-23T11:36:39.541Z,25.37
2019-03-23T11:39:06.679Z,25.54
2019-03-23T11:41:33.314Z,25.97
2019-03-23T11:44:00.291Z,26.48
2019-03-23T11:46:27.243Z,26.24
2019-03-23T11:48:54.435Z,26.45
2019-03-23T11:51:21.457Z,26.26
2019-03-23T11:53:48.436Z,26.23
2019-03-23T11:56:15.161Z,26.15
2019-03-23T11:58:42.047Z,26.31
2019-03-23T12:01:08.996Z,26.66
2019-03-23T12:03:35.880Z,26.77
2019-03-23T12:06:03.013Z,26.98
2019-03-23T12:08:29.720Z,27.22
2019-03-23T12:11:02.796Z,27.19
2019-03-23T12:13:25.579Z,27.05
2019-03-23T12:15:52.556Z,27.27
2019-03-23T12:18:20.669Z,27.72
2019-03-23T12:20:49.652Z,28.03
2019-03-23T12:23:19.150Z,27.94
2019-03-23T12:25:54.737Z,27.28
2019-03-23T12:28:24.640Z,27.06
2019-03-23T12:30:53.747Z,27.15
2019-03-23T12:33:24.679Z,27.11
2019-03-23T12:35:53.527Z,27.65
2019-03-23T12:41:22.823Z,27.92
2019-03-23T12:43:53.243Z,28.03
2019-03-23T12:46:21.379Z,27.66
2019-03-23T12:48:49.279Z,26.99
2019-03-23T12:51:19.283Z,27.42
2019-03-23T12:53:47.754Z,27.84
2019-03-23T12:56:16.853Z,28.14
2019-03-23T12:58:47.181Z,28.23
2019-03-23T13:01:18.139Z,28.01
2019-03-23T13:03:45.523Z,27.70
2019-03-23T13:06:13.795Z,27.88
2019-03-23T13:08:52.085Z,27.74
2019-03-23T13:11:34.811Z,27.84
2019-03-23T13:16:42.466Z,28.62
2019-03-23T13:19:13.123Z,28.80
2019-03-23T13:21:41.067Z,28.48
2019-03-23T13:24:12.271Z,28.16
2019-03-23T13:26:40.375Z,28.08
2019-03-23T13:29:10.938Z,28.38
2019-03-23T13:31:48.761Z,28.32
2019-03-23T13:34:18.882Z,28.56
2019-03-23T13:36:46.050Z,27.93
2019-03-23T13:39:20.440Z,28.01
2019-03-23T13:41:51.260Z,28.37
2019-03-23T13:44:21.176Z,28.11
2019-03-23T13:46:59.529Z,28.05
2019-03-23T13:49:31.625Z,28.45
2019-03-23T13:52:04.977Z,28.77
2019-03-23T13:54:33.740Z,29.03
2019-03-23T13:57:00.655Z,28.71
2019-03-23T13:59:31.755Z,28.20
2019-03-23T14:01:59.628Z,28.42
2019-03-23T14:04:29.316Z,28.30
2019-03-23T14:07:00.075Z,28.38
2019-03-23T14:09:30.773Z,28.27
2019-03-23T14:11:58.454Z,28.26
2019-03-23T14:14:26.383Z,28.69
2019-03-23T14:17:00.608Z,28.86
2019-03-23T14:19:31.468Z,27.95
2019-03-23T14:22:03.871Z,27.83
2019-03-23T14:24:30.729Z,27.89
2019-03-23T14:26:58.627Z,27.95
2019-03-23T14:29:26.801Z,28.33
2019-03-23T14:31:57.782Z,28.51
2019-03-23T14:34:24.647Z,28.10
2019-03-23T14:36:57.304Z,28.34
2019-03-23T14:39:26.883Z,28.34
2019-03-23T14:41:54.346Z,28.36
2019-03-23T14:47:09.064Z,28.18
2019-03-23T14:49:36.975Z,28.29
2019-03-23T14:52:03.675Z,27.99
2019-03-23T14:54:32.493Z,27.77
2019-03-23T14:56:59.379Z,27.56
2019-03-23T14:59:27.785Z,27.48
2019-03-23T15:04:40.798Z,27.69
2019-03-23T15:07:07.747Z,27.22
2019-03-23T15:09:34.654Z,27.25
2019-03-23T15:12:01.521Z,27.28
2019-03-23T15:14:28.414Z,27.35
2019-03-23T15:16:55.294Z,27.27
2019-03-23T15:19:21.934Z,27.42
2019-03-23T15:21:48.911Z,27.09
2019-03-23T15:24:15.802Z,27.04
2019-03-23T15:26:42.382Z,27.01
2019-03-23T15:29:09.306Z,27.16
2019-03-23T15:31:36.254Z,27.24
2019-03-23T15:34:03.239Z,27.31
2019-03-23T15:36:30.115Z,27.33
2019-03-23T15:38:57.006Z,27.15
2019-03-23T15:41:24.880Z,26.94
2019-03-23T15:43:51.730Z,26.90
2019-03-23T15:46:18.605Z,26.55
2019-03-23T15:48:45.485Z,26.58
2019-03-23T15:51:12.516Z,26.55
2019-03-23T15:53:39.436Z,26.53
2019-03-23T15:56:06.179Z,26.35
2019-03-23T15:58:33.111Z,26.29
2019-03-23T16:00:59.751Z,26.28
2019-03-23T16:03:26.668Z,26.49
2019-03-23T16:05:53.548Z,26.54
2019-03-23T16:08:20.247Z,26.29
2019-03-23T16:10:47.111Z,26.19
2019-03-23T16:13:14.025Z,26.16
2019-03-23T16:15:40.899Z,26.08
2019-03-23T16:18:07.793Z,25.93
2019-03-23T16:20:34.741Z,25.87
2019-03-23T16:23:01.917Z,25.82
2019-03-23T16:25:29.580Z,25.74
2019-03-23T16:27:56.488Z,25.64
2019-03-23T16:30:23.955Z,25.67
2019-03-23T16:32:50.820Z,25.57
2019-03-23T16:35:18.224Z,25.26
2019-03-23T16:37:44.840Z,25.22
2019-03-23T16:40:11.725Z,25.23
2019-03-23T16:42:45.265Z,25.14
2019-03-23T16:45:06.964Z,24.96
2019-03-23T16:47:33.897Z,24.81
2019-03-23T16:50:00.883Z,24.72
2019-03-23T16:52:27.802Z,24.61
2019-03-23T16:54:54.412Z,24.52
2019-03-23T16:57:21.372Z,24.47
2019-03-23T16:59:49.352Z,24.27
2019-03-23T17:02:16.203Z,24.09
2019-03-23T17:04:43.428Z,23.87
2019-03-23T17:07:10.391Z,23.79
2019-03-23T17:09:37.280Z,23.58
2019-03-23T17:12:04.556Z,23.44
2019-03-23T17:14:31.472Z,23.30
2019-03-23T17:17:00.259Z,23.14
2019-03-23T17:19:27.224Z,22.93
2019-03-23T17:21:54.115Z,22.72
2019-03-23T17:24:20.714Z,22.66
2019-03-23T17:26:47.615Z,22.39
2019-03-23T17:29:15.232Z,22.27
2019-03-23T17:31:42.166Z,22.04
2019-03-23T17:34:09.041Z,21.79
2019-03-23T17:36:35.936Z,21.57
2019-03-23T17:39:02.857Z,21.41
2019-03-23T17:41:30.346Z,21.37
2019-03-23T17:43:56.954Z,21.29
2019-03-23T17:46:23.800Z,21.15
2019-03-23T17:48:50.738Z,21.05
2019-03-23T17:51:17.432Z,21.03
2019-03-23T17:53:44.314Z,20.89
2019-03-23T17:56:10.976Z,20.81
2019-03-23T17:58:37.592Z,20.68
2019-03-23T18:01:04.457Z,20.45
2019-03-23T18:03:31.095Z,20.38
2019-03-23T18:05:57.972Z,20.27
2019-03-23T18:08:24.602Z,20.40
2019-03-23T18:10:51.257Z,20.36
2019-03-23T18:13:18.129Z,20.28
2019-03-23T18:15:44.751Z,20.21
2019-03-23T18:18:11.784Z,20.05
2019-03-23T18:26:15.385Z,19.59
2019-03-23T18:34:07.287Z,19.17
2019-03-23T18:43:26.758Z,19.06
2019-03-23T18:44:30.765Z,18.99
2019-03-23T18:50:37.354Z,18.74
2019-03-23T18:52:07.499Z,18.60
2019-03-23T18:53:30.612Z,18.98
2019-03-23T18:54:45.621Z,18.39
2019-03-23T18:57:40.013Z,18.30
2019-03-23T19:00:13.900Z,18.20
2019-03-23T19:08:18.449Z,17.56
2019-03-23T19:13:45.867Z,17.35
2019-03-23T19:16:16.759Z,17.34
2019-03-23T19:18:49.294Z,17.43
2019-03-23T19:26:37.360Z,17.30
2019-03-23T19:29:08.272Z,17.40
2019-03-23T19:31:36.437Z,17.26
2019-03-23T19:34:06.249Z,17.16
2019-03-23T19:36:34.663Z,17.10
2019-03-23T19:39:02.445Z,17.03
2019-03-23T19:41:32.803Z,16.78
2019-03-23T19:44:04.783Z,16.71
2019-03-23T19:49:18.803Z,16.79
2019-03-23T19:51:48.467Z,16.79
2019-03-23T19:54:16.100Z,16.70
2019-03-23T19:56:43.624Z,16.53
2019-03-23T19:59:11.242Z,16.57
2019-03-23T20:01:42.074Z,16.56
2019-03-23T20:04:09.438Z,16.45
2019-03-23T20:06:37.979Z,16.33
2019-03-23T20:09:04.442Z,16.20
2019-03-23T20:11:31.361Z,16.15
2019-03-23T20:13:59.119Z,15.99
2019-03-23T20:16:25.792Z,16.04
2019-03-23T20:18:53.229Z,16.21
2019-03-23T20:21:24.344Z,16.25
2019-03-23T20:23:53.476Z,16.06
2019-03-23T20:26:25.354Z,15.92
2019-03-23T20:28:55.104Z,15.67
2019-03-23T20:31:22.706Z,15.67
2019-03-23T20:33:52.041Z,15.54
2019-03-23T20:36:21.647Z,15.46
2019-03-23T20:38:50.697Z,15.67
2019-03-23T20:41:27.609Z,15.65
2019-03-23T20:43:56.728Z,15.57
2019-03-23T20:46:24.567Z,15.44
2019-03-23T20:48:52.650Z,15.28
2019-03-23T20:51:27.910Z,15.16
2019-03-23T20:53:53.216Z,15.02
2019-03-23T20:56:24.948Z,14.99
2019-03-23T20:58:57.034Z,14.90
2019-03-23T21:01:28.167Z,14.89
2019-03-23T21:03:58.072Z,14.86
2019-03-23T21:06:24.682Z,14.91
2019-03-23T21:08:51.415Z,14.94
2019-03-23T21:11:18.734Z,14.94
2019-03-23T21:13:45.583Z,14.94
2019-03-23T21:16:12.237Z,14.87
2019-03-23T21:18:38.991Z,14.68
2019-03-23T21:21:06.354Z,14.90
2019-03-23T21:23:33.171Z,14.88
2019-03-23T21:26:00.256Z,14.83
2019-03-23T21:28:27.116Z,14.94
2019-03-23T21:30:53.754Z,14.87
2019-03-23T21:33:20.602Z,14.81
2019-03-23T21:35:47.233Z,14.78
2019-03-23T21:38:14.216Z,14.80
2019-03-23T21:40:40.929Z,14.63
2019-03-23T21:43:07.682Z,14.64
2019-03-23T21:45:34.259Z,14.45
2019-03-23T21:48:01.152Z,14.26
2019-03-23T21:50:27.777Z,14.03
2019-03-23T21:52:54.716Z,14.05
2019-03-23T21:55:21.402Z,14.16
2019-03-23T21:57:48.117Z,14.03
2019-03-23T22:00:14.732Z,13.99
2019-03-23T22:02:41.374Z,13.96
2019-03-23T22:05:08.022Z,13.85
2019-03-23T22:07:34.638Z,13.83
2019-03-23T22:10:02.020Z,13.67
2019-03-23T22:12:28.845Z,13.58
2019-03-23T22:14:55.556Z,13.64
2019-03-23T22:17:22.220Z,13.59
2019-03-23T22:25:07.417Z,13.47
2019-03-23T22:27:34.127Z,13.54
2019-03-23T22:30:00.925Z,13.57
2019-03-23T22:32:27.606Z,13.36
2019-03-23T22:34:54.260Z,13.39
2019-03-23T22:37:20.931Z,13.40
2019-03-23T22:39:47.553Z,13.35
2019-03-23T22:42:14.531Z,13.34
2019-03-23T22:44:51.821Z,13.38
2019-03-23T22:47:11.016Z,13.13
2019-03-23T22:49:37.639Z,13.12
2019-03-23T22:52:18.266Z,13.20
2019-03-23T22:54:44.966Z,13.19
2019-03-23T22:57:11.933Z,13.22
2019-03-23T22:59:38.840Z,13.24
2019-03-23T23:02:05.595Z,13.07
2019-03-23T23:07:23.175Z,12.71
2019-03-23T23:09:49.817Z,12.65
2019-03-23T23:12:16.424Z,12.59
2019-03-23T23:14:43.363Z,12.68
2019-03-23T23:17:10.206Z,12.78
2019-03-23T23:19:36.971Z,12.84
2019-03-23T23:22:04.758Z,12.91
2019-03-23T23:24:31.671Z,12.84
2019-03-23T23:26:58.648Z,12.84
2019-03-23T23:29:25.754Z,12.69
2019-03-23T23:31:52.360Z,12.53
2019-03-23T23:34:19.097Z,12.40
2019-03-23T23:36:45.757Z,12.31
2019-03-23T23:39:12.335Z,12.31
2019-03-23T23:41:39.076Z,12.44
2019-03-23T23:44:06.503Z,12.49
2019-03-23T23:46:33.136Z,12.40
2019-03-23T23:49:00.066Z,12.39
2019-03-23T23:51:26.883Z,12.30
2019-03-23T23:53:53.585Z,12.33
2019-03-23T23:56:20.447Z,12.54
2019-03-23T23:58:47.126Z,12.58
